createdAt,value
2023-03-26T00:03:12.352Z,22
2023-03-26T00:13:12.147Z,22.2
2023-03-26T00:23:12.105Z,22.3
2023-03-26T00:33:12.453Z,23.1
2023-03-26T00:43:11.777Z,22.1
2023-03-26T00:53:12.547Z,22.9
2023-03-26T01:03:17.268Z,22
2023-03-26T01:13:13.131Z,22
2023-03-26T01:23:13.865Z,23.9
2023-03-26T01:33:14.493Z,22.6
2023-03-26T01:43:14.522Z,21.8
2023-03-26T01:53:13.966Z,22
2023-03-26T02:03:14.527Z,21.9
2023-03-26T02:13:14.893Z,21.8
2023-03-26T02:23:14.707Z,21.8
2023-03-26T02:33:15.319Z,21.8
2023-03-26T02:43:14.817Z,21.9
2023-03-26T02:53:14.629Z,21.6
2023-03-26T03:03:08.190Z,21.5
2023-03-26T03:13:08.037Z,21.3
2023-03-26T03:23:08.013Z,22.6
2023-03-26T03:33:07.979Z,22.4
2023-03-26T03:43:07.778Z,22.4
2023-03-26T03:53:07.572Z,21.9
2023-03-26T04:03:08.382Z,21.8
2023-03-26T04:13:09.595Z,21.4
2023-03-26T04:23:10.302Z,21.3
2023-03-26T04:33:11.495Z,21.3
2023-03-26T04:43:13.128Z,21.3
2023-03-26T04:53:14.147Z,21.4
2023-03-26T05:03:15.429Z,22.1
2023-03-26T05:13:29.485Z,26.4
2023-03-26T05:23:45.792Z,26.4
2023-03-26T05:34:02.063Z,26.9
2023-03-26T05:44:18.350Z,27.3
2023-03-26T05:54:34.827Z,27.3
2023-03-26T06:04:51.424Z,28.1
2023-03-26T06:15:09.075Z,27.9
2023-03-26T06:25:27.196Z,28.4
2023-03-26T06:35:45.634Z,29
2023-03-26T06:46:05.716Z,28.8
2023-03-26T06:56:25.045Z,29.9
2023-03-26T07:06:44.766Z,30.3
2023-03-26T07:17:04.883Z,30.7
2023-03-26T07:27:24.008Z,30.8
2023-03-26T07:37:42.658Z,30.9
2023-03-26T07:48:03.227Z,31.8
2023-03-26T07:58:22.142Z,31.9
2023-03-26T08:08:42.256Z,32.4
2023-03-26T08:19:01.279Z,32.1
2023-03-26T08:29:20.529Z,31.7
2023-03-26T08:39:38.636Z,32.2
2023-03-26T08:49:56.589Z,32.9
2023-03-26T09:03:14.302Z,33
2023-03-26T09:13:32.848Z,33.4
2023-03-26T09:23:51.610Z,32.7
2023-03-26T09:34:10.460Z,32.6
2023-03-26T09:44:29.573Z,33.3
2023-03-26T09:54:48.325Z,32.9
2023-03-26T10:05:08.327Z,32.8
2023-03-26T10:15:29.772Z,32.8
2023-03-26T10:25:50.704Z,28.1
2023-03-26T10:36:11.947Z,32.6
2023-03-26T10:46:33.236Z,30.8
2023-03-26T10:56:54.467Z,31.4
2023-03-26T11:07:10.865Z,30.4
2023-03-26T11:17:39.900Z,31.7
2023-03-26T11:27:48.774Z,30.7
2023-03-26T11:38:06.481Z,31
2023-03-26T11:48:21.232Z,30.1
2023-03-26T11:58:32.412Z,28.6
2023-03-26T12:08:38.966Z,27.7
2023-03-26T12:18:42.080Z,27.3
2023-03-26T12:28:44.643Z,27.1
2023-03-26T12:39:15.913Z,26.8
2023-03-26T12:52:01.386Z,26.7
2023-03-26T13:02:03.695Z,26.9
2023-03-26T13:12:05.614Z,26.8
2023-03-26T13:22:07.804Z,26.6
2023-03-26T13:32:09.956Z,26.6
2023-03-26T13:42:12.142Z,26.5
2023-03-26T13:52:14.214Z,26.5
2023-03-26T14:02:15.914Z,26.6
2023-03-26T14:12:20.808Z,26.3
2023-03-26T14:22:20.231Z,26.4
2023-03-26T14:32:24.068Z,26.5
2023-03-26T14:42:22.663Z,24.4
2023-03-26T14:52:24.010Z,25.9
2023-03-26T15:03:09.875Z,26.4
2023-03-26T15:13:10.743Z,26.1
2023-03-26T15:23:11.559Z,25.9
2023-03-26T15:33:11.976Z,23.8
2023-03-26T15:43:11.986Z,25.3
2023-03-26T15:53:11.300Z,23.4
2023-03-26T16:03:11.150Z,23.6
2023-03-26T16:13:12.354Z,23.6
2023-03-26T16:23:13.109Z,23.4
2023-03-26T16:33:13.293Z,22.8
2023-03-26T16:43:15.080Z,24.9
2023-03-26T16:53:16.266Z,23.3
2023-03-26T17:03:18.040Z,24.2
2023-03-26T17:13:17.449Z,23.3
2023-03-26T17:23:17.605Z,23.6
2023-03-26T17:33:17.487Z,23.2
2023-03-26T17:43:17.492Z,23.1
2023-03-26T17:53:17.270Z,24.1
2023-03-26T18:03:17.234Z,24.1
2023-03-26T18:13:17.738Z,22.8
2023-03-26T18:23:16.702Z,22.6
2023-03-26T18:33:16.415Z,22.8
2023-03-26T18:43:25.328Z,24
2023-03-26T18:53:16.605Z,22.4
2023-03-26T19:03:16.644Z,22.5
2023-03-26T19:13:15.661Z,22.4
2023-03-26T19:23:15.327Z,22.3
2023-03-26T19:33:15.630Z,22.7
2023-03-26T19:43:14.273Z,22.4
2023-03-26T19:53:16.502Z,22.5
2023-03-26T20:03:13.820Z,22.9
2023-03-26T20:13:13.166Z,22.2
2023-03-26T20:23:12.988Z,21.9
2023-03-26T20:33:13.784Z,22.1
2023-03-26T20:43:12.229Z,21.9
2023-03-26T20:53:11.236Z,22.2
2023-03-26T21:03:08.436Z,23.2
2023-03-26T21:13:07.467Z,22.1
2023-03-26T21:23:07.013Z,21.9
2023-03-26T21:33:07.094Z,21.9
2023-03-26T21:43:06.486Z,22.4
2023-03-26T21:53:05.958Z,21.7
2023-03-26T22:03:06.713Z,21.9
2023-03-26T22:13:07.176Z,22.9
2023-03-26T22:23:09.522Z,21.7
2023-03-26T22:33:08.963Z,22.9
2023-03-26T22:43:10.087Z,21.8
2023-03-26T22:53:10.661Z,21.8
2023-03-26T23:03:10.896Z,23
2023-03-26T23:13:10.761Z,23
2023-03-26T23:23:10.725Z,21.8
2023-03-26T23:33:10.511Z,21.6
2023-03-26T23:43:09.423Z,21.6
2023-03-26T23:53:09.682Z,21.4
